Bookmark and Share
Track history (hours):
 

Hansa Limburg

Last reported at 2014-Apr-23 18:00 UTC. Time now 2014-Apr-24 01:51 UTC.
Position N 22°12' W 087°06'.

Length 175.5 m; beam 27.4 m; draft 10.9 m.

Type: Ship (hazmat cat D). MMSI: 636090980.

Wind from 110 at 10 knots

Waves 0.5 meters (2 feet), 10 second period

Barometer 1013.0 mb
Air temperature 27.0 ° C
Visibility: greater than 5.4 NM
Dewpoint 20.6 ° C

NotesDate/timePositionNaut miles runAvg speedWind from/ knotsBaromVisibWave heightAir tempDewpointWater temp
2014-Apr-23 18:00N 22°12' W 087°06'9115.1 110 / 101013.0 5.4 0.527.020.6
2014-Apr-23 12:00N 21°54' W 088°42'140 7.8 070 / 101012.010.8 0.523.021.625.0
2014-Apr-22 18:00N 21°12' W 091°06'9716.1 070 / 141013.0 5.4 0.526.521.5
2014-Apr-22 12:00N 20°36' W 092°42'11819.7 060 / 161012.510.8 1.025.022.225.0
2014-Apr-22 06:00N 20°00' W 094°42'13 5.4 070 / 121013.2 5.4 0.525.522.7
2014-Apr-22 03:32N 19°47' W 094°43'1615.9
2014-Apr-22 02:33N 19°40' W 094°58'1615.8
2014-Apr-22 01:33N 19°34' W 095°13'1615.8
2014-Apr-22 00:33N 19°27' W 095°28'1615.7
2014-Apr-21 23:32N 19°23' W 095°45'1414.0
2014-Apr-21 22:34N 19°17' W 095°58'1010.4
2014-Apr-21 21:34N 19°12' W 096°07'1 1.2
2014-Apr-21 20:33N 19°13' W 096°08'0 0.0
2014-Apr-21 19:30N 19°13' W 096°08'0 0.0
2014-Apr-21 18:33N 19°13' W 096°08'0 0.0
2014-Apr-21 17:33N 19°13' W 096°08'0 0.0
2014-Apr-21 16:33N 19°13' W 096°08'0 0.0
2014-Apr-21 15:33N 19°13' W 096°08'0 0.0
2014-Apr-21 14:32N 19°13' W 096°08'0 0.0
2014-Apr-21 13:29N 19°13' W 096°08'0 0.0
2014-Apr-21 12:32N 19°13' W 096°08'0 0.0
2014-Apr-21 11:33N 19°13' W 096°08'0 0.0
2014-Apr-21 10:27N 19°13' W 096°08'0 0.0
2014-Apr-21 09:33N 19°13' W 096°08'0 0.0
2014-Apr-21 08:33N 19°13' W 096°08'0 0.0
2014-Apr-21 07:33N 19°13' W 096°08'0 0.0
2014-Apr-21 06:30N 19°13' W 096°08'0 0.0
2014-Apr-21 05:33N 19°13' W 096°08'4 4.1
2014-Apr-21 04:33N 19°11' W 096°04'5 4.9
2014-Apr-21 03:30N 19°08' W 095°60'0 0.0
2014-Apr-21 02:30N 19°08' W 095°60'0 0.0
2014-Apr-21 01:30N 19°08' W 095°60'0 0.0
2014-Apr-21 00:30N 19°08' W 095°60'2 3.9
2014-Apr-21 00:00N 19°06' W 096°00'2 4.1 060 / 151013.0 5.4 0.525.022.224.0
2014-Apr-20 23:30N 19°08' W 095°60'0 0.0
2014-Apr-20 22:24N 19°08' W 095°60'0 0.0
2014-Apr-20 21:30N 19°08' W 095°60'0 0.0
2014-Apr-20 20:24N 19°08' W 095°60'0 0.0
2014-Apr-20 19:30N 19°08' W 095°60'0 0.0
2014-Apr-20 18:30N 19°08' W 095°60'0 0.0
2014-Apr-20 17:18N 19°08' W 095°60'0 0.0
2014-Apr-20 16:24N 19°08' W 095°60'0 0.0
2014-Apr-20 15:30N 19°08' W 095°60'0 0.0
2014-Apr-20 14:30N 19°08' W 095°60'0 0.0
2014-Apr-20 13:33N 19°08' W 095°60'0 0.0
2014-Apr-20 12:33N 19°08' W 095°60'2 3.6
2014-Apr-20 12:00N 19°06' W 096°00'2 3.1 140 / 51015.510.8 0.523.022.323.0
2014-Apr-20 11:21N 19°08' W 095°60'0 0.0
2014-Apr-20 10:33N 19°08' W 095°60'0 0.0
2014-Apr-20 09:33N 19°08' W 095°60'0 0.0
2014-Apr-20 08:33N 19°08' W 095°60'0 0.0
2014-Apr-20 07:33N 19°08' W 095°60'0 0.0
2014-Apr-20 06:33N 19°08' W 095°60'0 0.0
2014-Apr-20 05:33N 19°08' W 095°60'0 0.0
2014-Apr-20 04:33N 19°08' W 095°60'0 0.0
2014-Apr-20 03:17N 19°08' W 095°60'0 0.1
2014-Apr-20 02:23N 19°08' W 095°60'1 0.9
2014-Apr-20 01:33N 19°09' W 096°00'1414.4
2014-Apr-20 00:34N 19°23' W 096°02'1616.1
2014-Apr-19 23:33N 19°38' W 096°09'8214.8
2014-Apr-19 18:00N 20°54' W 096°42'135 3.8 110 / 141017.0 5.4 0.525.522.0
2014-Apr-18 06:00N 22°36' W 095°06'9415.7 050 / 81013.5 5.4 0.524.021.1
2014-Apr-18 00:00N 22°36' W 093°24'18915.7 170 / 61010.5 5.4 1.024.021.923.0
2014-Apr-17 12:00N 22°48' W 090°00'   110 / 181012.0 5.4 1.024.021.021.0

Dump ship's entire track history

sailing weather and tide predictions

Hansa Limburg — A8IH6 — position and weather